createdAt,value
2022-12-16T00:00:35.342Z,-0.39
2022-12-16T00:03:39.329Z,-0.41
2022-12-16T00:06:42.244Z,-0.44
2022-12-16T00:09:47.083Z,-0.42
2022-12-16T00:12:49.942Z,-0.41
2022-12-16T00:15:54.937Z,-0.41
2022-12-16T00:18:58.199Z,-0.45
2022-12-16T00:22:01.141Z,-0.46
2022-12-16T00:25:06.393Z,-0.46
2022-12-16T00:28:09.305Z,-0.51
2022-12-16T00:31:12.738Z,-0.49
2022-12-16T00:34:15.769Z,-0.59
2022-12-16T00:37:18.923Z,-0.56
2022-12-16T00:40:23.059Z,-0.59
2022-12-16T00:43:26.160Z,-0.53
2022-12-16T00:46:28.929Z,-0.50
2022-12-16T00:49:31.865Z,-0.46
2022-12-16T00:52:34.829Z,-0.50
2022-12-16T00:55:39.250Z,-0.49
2022-12-16T00:58:42.626Z,-0.42
2022-12-16T01:01:45.685Z,-0.46
2022-12-16T01:04:49.016Z,-0.44
2022-12-16T01:07:52.092Z,-0.43
2022-12-16T01:10:58.252Z,-0.51
2022-12-16T01:14:01.617Z,-0.65
2022-12-16T01:17:04.956Z,-0.66
2022-12-16T01:20:09.664Z,-0.64
2022-12-16T01:23:12.756Z,-0.61
2022-12-16T01:26:18.630Z,-0.68
2022-12-16T01:29:21.598Z,-0.71
2022-12-16T01:32:24.728Z,-0.80
2022-12-16T01:35:52.636Z,-0.76
2022-12-16T01:38:51.351Z,-0.74
2022-12-16T01:41:56.240Z,-0.70
2022-12-16T01:45:33.029Z,-0.73
2022-12-16T01:48:42.995Z,-0.63
2022-12-16T01:51:50.636Z,-0.71
2022-12-16T01:55:00.973Z,-0.88
2022-12-16T01:58:08.670Z,-0.71
2022-12-16T02:01:11.568Z,-0.84
2022-12-16T02:04:14.641Z,-0.86
2022-12-16T02:07:17.841Z,-0.87
2022-12-16T02:10:26.533Z,-0.87
2022-12-16T02:13:40.313Z,-0.79
2022-12-16T02:16:52.574Z,-0.78
2022-12-16T02:20:30.098Z,-0.77
2022-12-16T02:23:54.657Z,-0.75
2022-12-16T02:27:42.510Z,-0.69
2022-12-16T02:31:10.937Z,-0.62
2022-12-16T02:38:19.090Z,-0.58
2022-12-16T02:41:29.008Z,-0.67
2022-12-16T02:44:41.150Z,-0.62
2022-12-16T02:47:46.104Z,-0.68
2022-12-16T02:50:51.890Z,-0.71
2022-12-16T02:53:56.204Z,-0.59
2022-12-16T02:57:09.049Z,-0.67
2022-12-16T03:00:15.019Z,-0.73
2022-12-16T03:03:24.451Z,-0.74
2022-12-16T03:06:28.486Z,-0.64
2022-12-16T03:09:37.361Z,-0.68
2022-12-16T03:12:43.093Z,-0.64
2022-12-16T03:15:48.201Z,-0.62
2022-12-16T03:18:56.470Z,-0.60
2022-12-16T03:22:08.902Z,-0.58
2022-12-16T03:25:12.726Z,-0.60
2022-12-16T03:28:28.755Z,-0.62
2022-12-16T03:31:38.369Z,-0.53
2022-12-16T03:34:49.574Z,-0.56
2022-12-16T03:37:57.009Z,-0.60
2022-12-16T03:41:02.373Z,-0.57
2022-12-16T03:44:05.684Z,-0.62
2022-12-16T03:47:08.658Z,-0.57
2022-12-16T03:50:13.382Z,-0.57
2022-12-16T03:53:16.510Z,-0.51
2022-12-16T03:56:19.375Z,-0.55
2022-12-16T03:59:22.365Z,-0.62
2022-12-16T04:02:28.287Z,-0.59
2022-12-16T04:05:32.858Z,-0.63
2022-12-16T04:08:35.841Z,-0.60
2022-12-16T04:11:56.081Z,-0.54
2022-12-16T04:15:19.202Z,-0.46
2022-12-16T04:18:45.253Z,-0.50
2022-12-16T04:22:07.534Z,-0.52
2022-12-16T04:25:16.380Z,-0.52
2022-12-16T04:28:19.252Z,-0.49
2022-12-16T04:31:22.170Z,-0.54
2022-12-16T04:34:26.881Z,-0.53
2022-12-16T04:37:48.160Z,-0.57
2022-12-16T04:41:08.518Z,-0.56
2022-12-16T04:44:28.844Z,-0.53
2022-12-16T04:47:52.707Z,-0.55
2022-12-16T04:51:16.272Z,-0.52
2022-12-16T04:54:38.395Z,-0.52
2022-12-16T04:57:59.178Z,-0.53
2022-12-16T05:01:19.589Z,-0.54
2022-12-16T05:04:39.966Z,-0.50
2022-12-16T05:08:00.398Z,-0.55
2022-12-16T05:11:22.254Z,-0.52
2022-12-16T05:14:43.029Z,-0.51
2022-12-16T05:18:03.487Z,-0.49
2022-12-16T05:21:20.726Z,-0.46
2022-12-16T05:24:41.179Z,-0.52
2022-12-16T05:28:02.842Z,-0.50
2022-12-16T05:31:25.336Z,-0.48
2022-12-16T05:34:46.013Z,-0.51
2022-12-16T05:38:06.848Z,-0.47
2022-12-16T05:41:27.758Z,-0.41
2022-12-16T05:44:49.868Z,-0.30
2022-12-16T05:48:13.782Z,-0.32
2022-12-16T05:51:34.390Z,-0.34
2022-12-16T05:54:54.677Z,-0.40
2022-12-16T05:58:18.423Z,-0.45
2022-12-16T06:01:40.563Z,-0.43
2022-12-16T06:05:12.768Z,-0.52
2022-12-16T06:08:33.126Z,-0.50
2022-12-16T06:11:54.206Z,-0.45
2022-12-16T06:15:14.971Z,-0.42
2022-12-16T06:18:36.522Z,-0.54
2022-12-16T06:22:02.208Z,-0.55
2022-12-16T06:25:23.693Z,-0.52
2022-12-16T06:28:45.999Z,-0.46
2022-12-16T06:32:07.118Z,-0.51
2022-12-16T06:35:30.293Z,-0.54
2022-12-16T06:38:51.102Z,-0.49
2022-12-16T06:42:12.098Z,-0.57
2022-12-16T06:45:41.076Z,-0.65
2022-12-16T06:49:01.455Z,-0.55
2022-12-16T06:52:23.279Z,-0.52
2022-12-16T06:55:43.787Z,-0.48
2022-12-16T06:59:04.213Z,-0.42
2022-12-16T07:02:27.115Z,-0.51
2022-12-16T07:05:47.320Z,-0.56
2022-12-16T07:09:09.164Z,-0.68
2022-12-16T07:12:29.536Z,-0.59
2022-12-16T07:15:50.430Z,-0.63
2022-12-16T07:19:11.498Z,-0.66
2022-12-16T07:22:32.362Z,-0.61
2022-12-16T07:25:54.357Z,-0.68
2022-12-16T07:29:23.258Z,-0.61
2022-12-16T07:32:43.862Z,-0.67
2022-12-16T07:36:04.176Z,-0.70
2022-12-16T07:39:24.371Z,-0.70
2022-12-16T07:42:46.404Z,-0.66
2022-12-16T07:46:06.681Z,-0.65
2022-12-16T07:49:38.573Z,-0.69
2022-12-16T07:53:01.321Z,-0.66
2022-12-16T07:56:22.140Z,-0.65
2022-12-16T07:59:44.064Z,-0.67
2022-12-16T08:03:04.725Z,-0.68
2022-12-16T08:06:25.180Z,-0.62
2022-12-16T08:09:46.059Z,-0.60
2022-12-16T08:13:06.484Z,-0.54
2022-12-16T08:16:28.757Z,-0.53
2022-12-16T08:19:49.182Z,-0.50
2022-12-16T08:23:10.009Z,-0.51
2022-12-16T08:26:30.754Z,-0.53
2022-12-16T08:29:51.344Z,-0.53
2022-12-16T08:33:18.849Z,-0.58
2022-12-16T08:36:40.289Z,-0.48
2022-12-16T08:40:33.165Z,-0.57
2022-12-16T08:43:40.913Z,-0.61
2022-12-16T08:47:00.577Z,-0.63
2022-12-16T08:50:23.275Z,-0.57
2022-12-16T08:53:43.804Z,-0.47
2022-12-16T08:57:04.381Z,-0.56
2022-12-16T09:00:26.338Z,-0.53
2022-12-16T09:03:47.388Z,-0.41
2022-12-16T09:07:09.430Z,-0.54
2022-12-16T09:10:31.307Z,-0.48
2022-12-16T09:13:54.872Z,-0.53
2022-12-16T09:17:15.215Z,-0.36
2022-12-16T09:20:35.465Z,-0.23
2022-12-16T09:23:59.016Z,-0.24
2022-12-16T09:27:19.570Z,-0.21
2022-12-16T09:30:40.536Z,-0.16
2022-12-16T09:34:00.996Z,-0.07
2022-12-16T09:37:21.334Z,-0.13
2022-12-16T09:40:42.854Z,-0.23
2022-12-16T09:44:29.946Z,-0.14
2022-12-16T09:47:57.411Z,-0.14
2022-12-16T09:51:23.654Z,-0.07
2022-12-16T09:54:47.450Z,-0.02
2022-12-16T09:58:09.581Z,-0.01
2022-12-16T10:01:31.481Z,0.06
2022-12-16T10:04:51.902Z,0.09
2022-12-16T10:08:20.480Z,0.06
2022-12-16T10:11:47.615Z,-0.02
2022-12-16T10:15:18.823Z,0.08
2022-12-16T10:18:52.242Z,0.18
2022-12-16T10:22:18.906Z,0.17
2022-12-16T10:25:42.388Z,0.29
2022-12-16T10:29:05.591Z,0.34
2022-12-16T10:32:34.897Z,0.44
2022-12-16T10:36:12.034Z,0.56
2022-12-16T10:39:41.102Z,0.59
2022-12-16T10:43:08.328Z,0.62
2022-12-16T10:46:48.634Z,0.72
2022-12-16T10:50:13.491Z,0.74
2022-12-16T10:53:36.183Z,0.72
2022-12-16T10:57:09.833Z,0.77
2022-12-16T11:00:33.930Z,0.83
2022-12-16T11:03:57.231Z,1.04
2022-12-16T11:07:15.508Z,1.10
2022-12-16T11:10:48.690Z,1.23
2022-12-16T11:14:09.443Z,1.25
2022-12-16T11:17:35.932Z,1.22
2022-12-16T11:20:53.000Z,1.34
2022-12-16T11:24:32.752Z,1.28
2022-12-16T11:27:52.953Z,1.34
2022-12-16T11:31:25.673Z,1.16
2022-12-16T11:34:45.925Z,1.01
2022-12-16T11:38:08.290Z,1.08
2022-12-16T11:41:41.504Z,1.07
2022-12-16T11:45:05.190Z,1.23
2022-12-16T11:48:35.328Z,1.36
2022-12-16T11:52:14.305Z,1.32
2022-12-16T11:56:05.500Z,1.31
2022-12-16T11:59:30.564Z,1.32
2022-12-16T12:02:56.349Z,1.44
2022-12-16T12:06:24.675Z,1.40
2022-12-16T12:09:46.625Z,1.44
2022-12-16T12:13:15.966Z,1.52
2022-12-16T12:16:48.545Z,1.41
2022-12-16T12:20:21.165Z,1.40
2022-12-16T12:23:53.138Z,1.42
2022-12-16T12:27:28.000Z,1.46
2022-12-16T12:30:57.465Z,1.25
2022-12-16T12:34:26.613Z,1.10
2022-12-16T12:37:53.250Z,0.99
2022-12-16T12:41:20.181Z,0.97
2022-12-16T12:44:54.903Z,0.99
2022-12-16T12:48:22.456Z,0.82
2022-12-16T12:51:50.210Z,0.75
2022-12-16T12:55:13.164Z,0.55
2022-12-16T12:58:35.706Z,0.63
2022-12-16T13:02:01.344Z,0.72
2022-12-16T13:05:24.761Z,0.83
2022-12-16T13:09:02.817Z,0.87
2022-12-16T13:12:42.364Z,0.93
2022-12-16T13:16:02.550Z,0.93
2022-12-16T13:19:58.633Z,0.86
2022-12-16T13:23:48.182Z,0.77
2022-12-16T13:27:20.284Z,0.85
2022-12-16T13:30:43.150Z,0.72
2022-12-16T13:34:10.395Z,0.70
2022-12-16T13:37:40.937Z,0.68
2022-12-16T13:41:08.866Z,0.58
2022-12-16T13:44:31.574Z,0.60
2022-12-16T13:48:13.061Z,0.58
2022-12-16T13:52:24.188Z,0.53
2022-12-16T13:55:49.281Z,0.48
2022-12-16T13:59:11.894Z,0.57
2022-12-16T14:02:47.629Z,0.52
2022-12-16T14:06:09.399Z,0.51
2022-12-16T14:09:43.076Z,0.40
2022-12-16T14:13:15.730Z,0.26
2022-12-16T14:16:44.221Z,0.22
2022-12-16T14:20:15.869Z,0.22
2022-12-16T14:23:57.233Z,0.22
2022-12-16T14:27:24.366Z,0.16
2022-12-16T14:30:45.252Z,0.20
2022-12-16T14:34:11.687Z,0.23
2022-12-16T14:37:35.541Z,0.17
2022-12-16T14:40:57.604Z,0.15
2022-12-16T14:44:18.775Z,0.14
2022-12-16T14:47:41.197Z,0.14
2022-12-16T14:51:01.473Z,0.20
2022-12-16T14:54:46.190Z,0.28
2022-12-16T14:58:17.591Z,0.24
2022-12-16T15:01:41.150Z,0.18
2022-12-16T15:05:02.333Z,0.13
2022-12-16T15:08:23.830Z,0.13
2022-12-16T15:11:46.070Z,0.18
2022-12-16T15:15:06.436Z,0.09
2022-12-16T15:18:35.901Z,0.12
2022-12-16T15:21:56.502Z,0.08
2022-12-16T15:25:17.282Z,0.07
2022-12-16T15:28:45.399Z,-0.04
2022-12-16T15:32:05.741Z,-0.09
2022-12-16T15:35:26.091Z,-0.06
2022-12-16T15:38:49.090Z,-0.08
2022-12-16T15:42:09.440Z,-0.14
2022-12-16T15:45:43.153Z,-0.09
2022-12-16T15:49:09.027Z,-0.13
2022-12-16T15:52:49.726Z,-0.29
2022-12-16T15:56:14.454Z,-0.34
2022-12-16T15:59:48.493Z,-0.26
2022-12-16T16:03:10.778Z,-0.33
2022-12-16T16:06:40.001Z,-0.24
2022-12-16T16:10:00.653Z,-0.27
2022-12-16T16:13:21.762Z,-0.31
2022-12-16T16:16:42.159Z,-0.43
2022-12-16T16:20:10.081Z,-0.41
2022-12-16T16:23:31.394Z,-0.36
2022-12-16T16:26:52.267Z,-0.29
2022-12-16T16:30:13.051Z,-0.42
2022-12-16T16:33:48.466Z,-0.46
2022-12-16T16:37:13.573Z,-0.37
2022-12-16T16:40:40.859Z,-0.37
2022-12-16T16:44:00.984Z,-0.48
2022-12-16T16:47:21.601Z,-0.49
2022-12-16T16:50:42.317Z,-0.49
2022-12-16T16:54:04.844Z,-0.53
2022-12-16T16:57:28.236Z,-0.55
2022-12-16T17:00:48.819Z,-0.61
2022-12-16T17:04:09.072Z,-0.58
2022-12-16T17:07:31.216Z,-0.59
2022-12-16T17:10:52.215Z,-0.50
2022-12-16T17:14:20.223Z,-0.38
2022-12-16T17:17:42.991Z,-0.54
2022-12-16T17:21:05.363Z,-0.59
2022-12-16T17:24:29.313Z,-0.52
2022-12-16T17:27:54.285Z,-0.56
2022-12-16T17:31:17.805Z,-0.60
2022-12-16T17:34:41.291Z,-0.69
2022-12-16T17:38:09.552Z,-0.77
2022-12-16T17:41:40.592Z,-0.71
2022-12-16T17:45:06.841Z,-0.67
2022-12-16T17:48:32.433Z,-0.61
2022-12-16T17:51:56.653Z,-0.45
2022-12-16T17:55:18.906Z,-0.47
2022-12-16T17:58:49.881Z,-0.47
2022-12-16T18:02:14.046Z,-0.47
2022-12-16T18:05:42.486Z,-0.45
2022-12-16T18:09:07.388Z,-0.57
2022-12-16T18:12:33.901Z,-0.64
2022-12-16T18:15:56.398Z,-0.76
2022-12-16T18:19:23.109Z,-0.65
2022-12-16T18:22:48.576Z,-0.68
2022-12-16T18:26:19.486Z,-0.66
2022-12-16T18:29:45.185Z,-0.69
2022-12-16T18:33:09.799Z,-0.76
2022-12-16T18:36:33.986Z,-0.76
2022-12-16T18:39:56.658Z,-0.71
2022-12-16T18:43:20.356Z,-0.85
2022-12-16T18:46:44.144Z,-0.84
2022-12-16T18:50:06.973Z,-0.83
2022-12-16T18:53:31.826Z,-0.83
2022-12-16T18:57:00.597Z,-0.89
2022-12-16T19:00:24.118Z,-0.85
2022-12-16T19:03:47.216Z,-0.79
2022-12-16T19:07:11.711Z,-0.82
2022-12-16T19:10:36.758Z,-0.94
2022-12-16T19:13:59.049Z,-0.89
2022-12-16T19:17:21.243Z,-0.93
2022-12-16T19:20:43.744Z,-0.94
2022-12-16T19:24:09.329Z,-0.85
2022-12-16T19:27:36.937Z,-0.80
2022-12-16T19:31:01.647Z,-0.71
2022-12-16T19:34:30.048Z,-0.75
2022-12-16T19:38:03.108Z,-0.68
2022-12-16T20:07:11.876Z,-0.83
2022-12-16T20:27:06.440Z,-0.89
2022-12-16T20:31:04.719Z,-0.99
2022-12-16T20:34:53.182Z,-0.93
2022-12-16T20:38:44.889Z,-0.81
2022-12-16T20:46:30.075Z,-0.85
2022-12-16T20:50:34.525Z,-0.87
2022-12-16T20:54:09.126Z,-0.96
2022-12-16T20:57:42.815Z,-0.98
2022-12-16T21:01:20.777Z,-1.01
2022-12-16T21:05:20.841Z,-1.00
2022-12-16T21:08:45.105Z,-1.03
2022-12-16T21:12:19.317Z,-1.08
2022-12-16T21:15:55.118Z,-1.03
2022-12-16T21:19:38.337Z,-0.92
2022-12-16T21:23:26.698Z,-0.99
2022-12-16T21:31:00.414Z,-1.06
2022-12-16T21:34:26.099Z,-1.03
2022-12-16T21:38:05.504Z,-0.93
2022-12-16T21:41:43.703Z,-0.94
2022-12-16T21:45:06.595Z,-1.00
2022-12-16T21:52:42.899Z,-1.02
2022-12-16T21:56:23.341Z,-1.15
2022-12-16T22:04:03.794Z,-1.18
2022-12-16T22:07:43.062Z,-1.37
2022-12-16T22:31:21.263Z,-2.54
2022-12-16T22:34:44.906Z,-2.68
2022-12-16T22:38:10.253Z,-2.83
2022-12-16T22:41:37.510Z,-2.95
2022-12-16T22:45:00.590Z,-2.99
2022-12-16T22:48:22.696Z,-3.07
2022-12-16T22:51:46.907Z,-3.18
2022-12-16T22:55:10.189Z,-3.38
2022-12-16T22:58:38.889Z,-3.50
2022-12-16T23:02:02.536Z,-3.62
2022-12-16T23:05:40.333Z,-3.68
2022-12-16T23:09:05.907Z,-3.84
2022-12-16T23:12:37.148Z,-3.79
2022-12-16T23:16:03.686Z,-3.79
2022-12-16T23:19:27.583Z,-3.78
2022-12-16T23:22:50.263Z,-3.80
2022-12-16T23:26:18.758Z,-3.79
2022-12-16T23:29:40.909Z,-3.89
2022-12-16T23:33:07.431Z,-3.94
2022-12-16T23:36:31.537Z,-3.97
2022-12-16T23:39:54.878Z,-3.97
2022-12-16T23:43:20.337Z,-3.94
2022-12-16T23:46:43.606Z,-3.87
2022-12-16T23:50:09.725Z,-3.86
2022-12-16T23:53:35.893Z,-3.88
2022-12-16T23:56:59.907Z,-3.86
